sensor_id;sensor_type;location;lat;lon;timestamp;pressure;altitude;pressure_sealevel;temperature;humidity
36304;BME280;22335;49.800;8.596;2022-10-16T00:01:46;100217.47;;;19.84;87.42
36304;BME280;22335;49.800;8.596;2022-10-16T00:08:31;100204.28;;;19.81;87.36
36304;BME280;22335;49.800;8.596;2022-10-16T00:15:19;100214.84;;;19.75;87.38
36304;BME280;22335;49.800;8.596;2022-10-16T00:22:05;100241.69;;;19.71;87.79
36304;BME280;22335;49.800;8.596;2022-10-16T00:28:51;100156.38;;;19.28;87.61
36304;BME280;22335;49.800;8.596;2022-10-16T00:35:39;100230.50;;;19.55;87.75
36304;BME280;22335;49.800;8.596;2022-10-16T00:42:25;100228.41;;;19.52;87.10
36304;BME280;22335;49.800;8.596;2022-10-16T00:49:12;100223.09;;;19.47;86.98
36304;BME280;22335;49.800;8.596;2022-10-16T00:56:03;100226.56;;;19.44;86.89
36304;BME280;22335;49.800;8.596;2022-10-16T01:02:52;100154.34;;;18.88;86.25
36304;BME280;22335;49.800;8.596;2022-10-16T01:09:47;100234.44;;;19.42;86.30
36304;BME280;22335;49.800;8.596;2022-10-16T01:16:45;100245.38;;;19.51;86.05
36304;BME280;22335;49.800;8.596;2022-10-16T01:23:43;100247.69;;;19.61;85.62
36304;BME280;22335;49.800;8.596;2022-10-16T01:30:41;100240.41;;;19.69;85.62
36304;BME280;22335;49.800;8.596;2022-10-16T01:37:32;100233.91;;;19.77;85.55
36304;BME280;22335;49.800;8.596;2022-10-16T01:44:24;100203.22;;;19.57;84.86
36304;BME280;22335;49.800;8.596;2022-10-16T01:51:16;100258.75;;;19.86;85.44
36304;BME280;22335;49.800;8.596;2022-10-16T01:58:05;100277.81;;;19.87;85.08
36304;BME280;22335;49.800;8.596;2022-10-16T02:04:56;100266.91;;;19.94;85.27
36304;BME280;22335;49.800;8.596;2022-10-16T02:11:46;100196.13;;;19.72;84.65
36304;BME280;22335;49.800;8.596;2022-10-16T02:18:33;100268.41;;;20.32;83.79
36304;BME280;22335;49.800;8.596;2022-10-16T02:25:22;100236.91;;;20.28;83.17
36304;BME280;22335;49.800;8.596;2022-10-16T02:32:16;100193.78;;;20.02;83.44
36304;BME280;22335;49.800;8.596;2022-10-16T02:39:05;100263.56;;;20.29;83.23
36304;BME280;22335;49.800;8.596;2022-10-16T03:06:36;100284.75;;;20.21;84.24
36304;BME280;22335;49.800;8.596;2022-10-16T03:13:22;100278.00;;;20.35;83.55
36304;BME280;22335;49.800;8.596;2022-10-16T03:20:08;100293.19;;;20.53;83.01
36304;BME280;22335;49.800;8.596;2022-10-16T03:26:57;100282.75;;;20.94;81.42
36304;BME280;22335;49.800;8.596;2022-10-16T03:33:42;100286.22;;;21.07;81.05
36304;BME280;22335;49.800;8.596;2022-10-16T03:40:27;100288.34;;;21.29;80.12
36304;BME280;22335;49.800;8.596;2022-10-16T03:47:16;100291.13;;;21.45;78.86
36304;BME280;22335;49.800;8.596;2022-10-16T03:54:03;100293.06;;;21.60;78.35
36304;BME280;22335;49.800;8.596;2022-10-16T04:00:48;100301.34;;;21.57;77.61
36304;BME280;22335;49.800;8.596;2022-10-16T04:07:37;100302.69;;;21.63;77.71
36304;BME280;22335;49.800;8.596;2022-10-16T04:14:22;100300.69;;;21.63;76.82
36304;BME280;22335;49.800;8.596;2022-10-16T04:21:08;100294.25;;;21.59;76.77
36304;BME280;22335;49.800;8.596;2022-10-16T04:27:56;100306.66;;;21.62;76.27
36304;BME280;22335;49.800;8.596;2022-10-16T04:34:41;100306.53;;;21.74;76.02
36304;BME280;22335;49.800;8.596;2022-10-16T04:41:27;100319.25;;;21.75;75.38
36304;BME280;22335;49.800;8.596;2022-10-16T04:48:15;100297.47;;;21.61;75.06
36304;BME280;22335;49.800;8.596;2022-10-16T04:55:01;100293.47;;;21.27;76.01
36304;BME280;22335;49.800;8.596;2022-10-16T05:01:47;100150.97;;;20.03;76.68
36304;BME280;22335;49.800;8.596;2022-10-16T05:08:35;100295.56;;;20.83;77.57
36304;BME280;22335;49.800;8.596;2022-10-16T05:15:20;100289.09;;;20.63;78.30
36304;BME280;22335;49.800;8.596;2022-10-16T05:22:06;100305.59;;;20.43;78.87
36304;BME280;22335;49.800;8.596;2022-10-16T05:28:54;100298.25;;;20.35;79.15
36304;BME280;22335;49.800;8.596;2022-10-16T05:35:40;100304.69;;;20.39;78.34
36304;BME280;22335;49.800;8.596;2022-10-16T05:42:26;100304.09;;;20.18;79.17
36304;BME280;22335;49.800;8.596;2022-10-16T05:49:14;100332.47;;;20.39;78.70
36304;BME280;22335;49.800;8.596;2022-10-16T05:56:00;100326.72;;;20.32;79.26
36304;BME280;22335;49.800;8.596;2022-10-16T06:02:46;100351.13;;;20.39;78.93
36304;BME280;22335;49.800;8.596;2022-10-16T06:09:34;100359.75;;;20.49;78.59
36304;BME280;22335;49.800;8.596;2022-10-16T06:16:20;100288.50;;;20.13;78.29
36304;BME280;22335;49.800;8.596;2022-10-16T06:23:06;100370.41;;;20.60;78.40
36304;BME280;22335;49.800;8.596;2022-10-16T06:29:54;100364.63;;;20.53;78.48
36304;BME280;22335;49.800;8.596;2022-10-16T06:36:39;100367.88;;;20.42;78.66
36304;BME280;22335;49.800;8.596;2022-10-16T06:43:25;100365.34;;;20.37;79.23
36304;BME280;22335;49.800;8.596;2022-10-16T06:50:16;100362.59;;;20.25;79.69
36304;BME280;22335;49.800;8.596;2022-10-16T06:57:01;100400.16;;;20.47;79.54
36304;BME280;22335;49.800;8.596;2022-10-16T07:03:47;100394.94;;;20.58;78.70
36304;BME280;22335;49.800;8.596;2022-10-16T07:10:35;100388.31;;;20.62;78.80
36304;BME280;22335;49.800;8.596;2022-10-16T07:17:21;100411.50;;;20.82;78.71
36304;BME280;22335;49.800;8.596;2022-10-16T07:24:11;100426.09;;;21.07;77.70
36304;BME280;22335;49.800;8.596;2022-10-16T07:31:03;100433.38;;;21.28;77.27
36304;BME280;22335;49.800;8.596;2022-10-16T07:37:49;100437.97;;;21.52;76.31
36304;BME280;22335;49.800;8.596;2022-10-16T07:44:35;100383.09;;;21.21;75.90
36304;BME280;22335;49.800;8.596;2022-10-16T07:51:25;100451.28;;;21.74;75.60
36304;BME280;22335;49.800;8.596;2022-10-16T07:58:11;100449.94;;;21.68;75.02
36304;BME280;22335;49.800;8.596;2022-10-16T08:04:56;100473.34;;;21.67;75.29
36304;BME280;22335;49.800;8.596;2022-10-16T08:11:46;100468.16;;;21.50;76.08
36304;BME280;22335;49.800;8.596;2022-10-16T08:18:34;100478.00;;;21.31;76.12
36304;BME280;22335;49.800;8.596;2022-10-16T08:25:20;100500.09;;;21.12;77.06
36304;BME280;22335;49.800;8.596;2022-10-16T08:32:08;100534.69;;;20.99;77.22
36304;BME280;22335;49.800;8.596;2022-10-16T08:38:53;100570.31;;;21.09;77.35
36304;BME280;22335;49.800;8.596;2022-10-16T08:45:45;100475.88;;;20.56;77.16
36304;BME280;22335;49.800;8.596;2022-10-16T08:52:43;100576.34;;;20.70;78.53
36304;BME280;22335;49.800;8.596;2022-10-16T08:59:29;100567.56;;;20.56;78.95
36304;BME280;22335;49.800;8.596;2022-10-16T09:06:29;100491.56;;;19.99;79.95
36304;BME280;22335;49.800;8.596;2022-10-16T09:13:29;100571.06;;;20.41;80.66
36304;BME280;22335;49.800;8.596;2022-10-16T09:20:26;100507.06;;;19.88;81.20
36304;BME280;22335;49.800;8.596;2022-10-16T09:27:19;100587.84;;;20.44;82.30
36304;BME280;22335;49.800;8.596;2022-10-16T09:34:14;100598.03;;;20.53;82.88
36304;BME280;22335;49.800;8.596;2022-10-16T09:41:14;100592.72;;;20.60;83.15
36304;BME280;22335;49.800;8.596;2022-10-16T09:48:10;100609.00;;;20.73;83.73
36304;BME280;22335;49.800;8.596;2022-10-16T09:55:00;100597.75;;;20.82;83.71
36304;BME280;22335;49.800;8.596;2022-10-16T10:01:54;100598.91;;;20.93;83.54
36304;BME280;22335;49.800;8.596;2022-10-16T10:08:53;100611.22;;;21.21;83.75
36304;BME280;22335;49.800;8.596;2022-10-16T10:15:47;100621.47;;;21.45;82.56
36304;BME280;22335;49.800;8.596;2022-10-16T10:22:40;100610.28;;;21.57;81.84
36304;BME280;22335;49.800;8.596;2022-10-16T10:29:47;100612.31;;;21.88;83.33
36304;BME280;22335;49.800;8.596;2022-10-16T10:36:41;100617.03;;;22.31;82.10
36304;BME280;22335;49.800;8.596;2022-10-16T10:43:39;100619.16;;;22.54;80.93
36304;BME280;22335;49.800;8.596;2022-10-16T10:50:39;100613.34;;;22.78;79.86
36304;BME280;22335;49.800;8.596;2022-10-16T10:57:37;100542.00;;;22.58;80.48
36304;BME280;22335;49.800;8.596;2022-10-16T11:04:45;100598.38;;;23.22;78.89
36304;BME280;22335;49.800;8.596;2022-10-16T11:11:52;100597.88;;;23.36;77.96
36304;BME280;22335;49.800;8.596;2022-10-16T11:18:49;100600.75;;;23.39;77.21
36304;BME280;22335;49.800;8.596;2022-10-16T11:25:39;100596.75;;;23.40;77.16
36304;BME280;22335;49.800;8.596;2022-10-16T11:32:29;100617.69;;;23.50;76.92
36304;BME280;22335;49.800;8.596;2022-10-16T11:39:24;100608.06;;;23.67;77.09
36304;BME280;22335;49.800;8.596;2022-10-16T11:46:13;100613.69;;;23.90;75.45
36304;BME280;22335;49.800;8.596;2022-10-16T11:59:58;100594.19;;;24.16;74.29
36304;BME280;22335;49.800;8.596;2022-10-16T12:06:57;100594.63;;;24.19;74.10
36304;BME280;22335;49.800;8.596;2022-10-16T12:13:44;100598.78;;;24.28;73.38
36304;BME280;22335;49.800;8.596;2022-10-16T12:20:32;100589.47;;;24.44;72.72
36304;BME280;22335;49.800;8.596;2022-10-16T12:27:24;100587.69;;;24.58;71.92
36304;BME280;22335;49.800;8.596;2022-10-16T12:34:22;100604.25;;;24.71;71.42
36304;BME280;22335;49.800;8.596;2022-10-16T12:41:24;100591.28;;;24.85;71.17
36304;BME280;22335;49.800;8.596;2022-10-16T12:48:21;100596.28;;;24.99;70.16
36304;BME280;22335;49.800;8.596;2022-10-16T12:55:23;100600.81;;;25.11;69.69
36304;BME280;22335;49.800;8.596;2022-10-16T13:09:47;100544.72;;;25.00;68.47
36304;BME280;22335;49.800;8.596;2022-10-16T13:16:50;100605.63;;;25.44;68.19
36304;BME280;22335;49.800;8.596;2022-10-16T13:23:51;100600.97;;;25.56;67.16
36304;BME280;22335;49.800;8.596;2022-10-16T13:30:42;100591.38;;;25.57;66.76
36304;BME280;22335;49.800;8.596;2022-10-16T13:37:28;100571.56;;;25.39;66.89
36304;BME280;22335;49.800;8.596;2022-10-16T13:44:19;100615.88;;;25.67;66.48
36304;BME280;22335;49.800;8.596;2022-10-16T13:51:11;100607.16;;;25.72;66.12
36304;BME280;22335;49.800;8.596;2022-10-16T13:58:04;100607.63;;;25.77;66.19
36304;BME280;22335;49.800;8.596;2022-10-16T14:04:54;100618.06;;;25.81;65.93
36304;BME280;22335;49.800;8.596;2022-10-16T14:11:45;100614.78;;;25.75;65.94
36304;BME280;22335;49.800;8.596;2022-10-16T14:18:33;100619.50;;;25.67;65.84
36304;BME280;22335;49.800;8.596;2022-10-16T14:25:24;100604.59;;;25.56;65.43
36304;BME280;22335;49.800;8.596;2022-10-16T14:32:23;100598.44;;;25.43;65.74
36304;BME280;22335;49.800;8.596;2022-10-16T14:39:18;100590.00;;;25.40;64.89
36304;BME280;22335;49.800;8.596;2022-10-16T14:46:12;100590.91;;;25.51;65.18
36304;BME280;22335;49.800;8.596;2022-10-16T14:52:59;100602.66;;;25.64;64.41
36304;BME280;22335;49.800;8.596;2022-10-16T14:59:45;100599.56;;;25.76;64.15
36304;BME280;22335;49.800;8.596;2022-10-16T15:06:35;100598.81;;;25.79;63.05
36304;BME280;22335;49.800;8.596;2022-10-16T15:13:20;100601.75;;;25.90;63.06
36304;BME280;22335;49.800;8.596;2022-10-16T15:20:06;100602.78;;;26.15;63.06
36304;BME280;22335;49.800;8.596;2022-10-16T15:26:55;100617.06;;;25.99;63.03
36304;BME280;22335;49.800;8.596;2022-10-16T15:33:40;100626.31;;;26.04;62.88
36304;BME280;22335;49.800;8.596;2022-10-16T15:40:29;100632.75;;;26.08;62.71
36304;BME280;22335;49.800;8.596;2022-10-16T15:47:17;100622.34;;;26.08;62.31
36304;BME280;22335;49.800;8.596;2022-10-16T15:54:03;100637.59;;;26.11;61.91
36304;BME280;22335;49.800;8.596;2022-10-16T16:00:54;100620.72;;;26.07;61.69
36304;BME280;22335;49.800;8.596;2022-10-16T16:07:46;100619.09;;;26.03;61.41
36304;BME280;22335;49.800;8.596;2022-10-16T16:14:32;100633.06;;;25.99;61.05
36304;BME280;22335;49.800;8.596;2022-10-16T16:21:17;100638.25;;;25.97;60.57
36304;BME280;22335;49.800;8.596;2022-10-16T16:28:05;100640.59;;;25.91;60.96
36304;BME280;22335;49.800;8.596;2022-10-16T16:34:52;100648.59;;;25.89;60.90
36304;BME280;22335;49.800;8.596;2022-10-16T16:41:37;100653.34;;;25.85;60.68
36304;BME280;22335;49.800;8.596;2022-10-16T16:48:25;100642.91;;;25.82;60.30
36304;BME280;22335;49.800;8.596;2022-10-16T16:55:11;100663.25;;;25.79;60.40
36304;BME280;22335;49.800;8.596;2022-10-16T17:01:57;100657.25;;;25.77;60.12
36304;BME280;22335;49.800;8.596;2022-10-16T17:08:45;100657.53;;;25.68;60.55
36304;BME280;22335;49.800;8.596;2022-10-16T17:15:31;100659.50;;;25.64;60.18
36304;BME280;22335;49.800;8.596;2022-10-16T17:22:17;100630.78;;;25.37;60.52
36304;BME280;22335;49.800;8.596;2022-10-16T17:29:05;100666.63;;;25.58;60.57
36304;BME280;22335;49.800;8.596;2022-10-16T17:35:51;100533.47;;;24.67;59.90
36304;BME280;22335;49.800;8.596;2022-10-16T17:42:36;100684.13;;;25.51;59.93
36304;BME280;22335;49.800;8.596;2022-10-16T17:49:25;100679.66;;;25.43;59.82
36304;BME280;22335;49.800;8.596;2022-10-16T17:56:11;100681.94;;;25.34;59.45
36304;BME280;22335;49.800;8.596;2022-10-16T18:02:57;100697.44;;;25.28;59.76
36304;BME280;22335;49.800;8.596;2022-10-16T18:09:45;100673.47;;;25.04;59.83
36304;BME280;22335;49.800;8.596;2022-10-16T18:16:51;100705.63;;;25.14;59.49
36304;BME280;22335;49.800;8.596;2022-10-16T18:23:37;100664.19;;;24.70;59.04
36304;BME280;22335;49.800;8.596;2022-10-16T18:30:35;100711.22;;;24.87;59.00
36304;BME280;22335;49.800;8.596;2022-10-16T18:37:20;100717.06;;;24.78;58.95
36304;BME280;22335;49.800;8.596;2022-10-16T18:44:07;100667.97;;;24.35;59.00
36304;BME280;22335;49.800;8.596;2022-10-16T18:51:05;100717.81;;;24.52;58.92
36304;BME280;22335;49.800;8.596;2022-10-16T18:57:52;100718.91;;;24.44;59.00
36304;BME280;22335;49.800;8.596;2022-10-16T19:04:38;100715.00;;;24.29;59.23
36304;BME280;22335;49.800;8.596;2022-10-16T19:11:26;100702.63;;;24.07;58.71
36304;BME280;22335;49.800;8.596;2022-10-16T19:18:12;100718.31;;;23.92;59.21
36304;BME280;22335;49.800;8.596;2022-10-16T19:24:57;100733.28;;;23.84;59.28
36304;BME280;22335;49.800;8.596;2022-10-16T19:31:45;100722.66;;;23.70;59.10
36304;BME280;22335;49.800;8.596;2022-10-16T19:38:31;100733.28;;;23.65;58.82
36304;BME280;22335;49.800;8.596;2022-10-16T19:45:16;100740.78;;;23.61;58.74
36304;BME280;22335;49.800;8.596;2022-10-16T19:52:04;100742.91;;;23.48;59.03
36304;BME280;22335;49.800;8.596;2022-10-16T19:58:51;100712.56;;;23.11;58.75
36304;BME280;22335;49.800;8.596;2022-10-16T20:05:37;100762.63;;;23.39;58.77
36304;BME280;22335;49.800;8.596;2022-10-16T20:12:25;100776.94;;;23.38;58.89
36304;BME280;22335;49.800;8.596;2022-10-16T20:19:10;100780.84;;;23.33;59.01
36304;BME280;22335;49.800;8.596;2022-10-16T20:25:59;100671.59;;;22.64;58.91
36304;BME280;22335;49.800;8.596;2022-10-16T20:32:48;100781.91;;;23.29;58.61
36304;BME280;22335;49.800;8.596;2022-10-16T20:39:34;100795.44;;;23.27;58.53
36304;BME280;22335;49.800;8.596;2022-10-16T20:46:21;100787.00;;;23.23;58.63
36304;BME280;22335;49.800;8.596;2022-10-16T20:53:11;100800.03;;;23.19;58.66
36304;BME280;22335;49.800;8.596;2022-10-16T20:59:56;100801.22;;;23.18;58.20
36304;BME280;22335;49.800;8.596;2022-10-16T21:06:43;100796.19;;;23.08;58.11
36304;BME280;22335;49.800;8.596;2022-10-16T21:13:30;100814.53;;;23.09;57.84
36304;BME280;22335;49.800;8.596;2022-10-16T21:20:16;100809.59;;;23.02;58.14
36304;BME280;22335;49.800;8.596;2022-10-16T21:27:02;100818.22;;;22.97;57.89
36304;BME280;22335;49.800;8.596;2022-10-16T21:33:50;100814.88;;;22.91;57.96
36304;BME280;22335;49.800;8.596;2022-10-16T21:40:37;100815.69;;;22.92;57.83
36304;BME280;22335;49.800;8.596;2022-10-16T21:47:22;100814.69;;;22.84;57.28
36304;BME280;22335;49.800;8.596;2022-10-16T21:54:12;100817.31;;;22.93;57.36
36304;BME280;22335;49.800;8.596;2022-10-16T22:01:05;100810.16;;;22.64;57.83
36304;BME280;22335;49.800;8.596;2022-10-16T22:07:51;100806.84;;;22.58;57.33
36304;BME280;22335;49.800;8.596;2022-10-16T22:14:39;100801.16;;;22.54;57.72
36304;BME280;22335;49.800;8.596;2022-10-16T22:21:25;100811.88;;;22.52;57.22
36304;BME280;22335;49.800;8.596;2022-10-16T22:28:13;100808.06;;;22.45;57.46
36304;BME280;22335;49.800;8.596;2022-10-16T22:35:01;100816.97;;;22.35;57.40
36304;BME280;22335;49.800;8.596;2022-10-16T22:41:46;100824.44;;;22.30;57.50
36304;BME280;22335;49.800;8.596;2022-10-16T22:48:32;100822.34;;;22.27;57.57
36304;BME280;22335;49.800;8.596;2022-10-16T22:55:21;100820.63;;;22.23;57.77
36304;BME280;22335;49.800;8.596;2022-10-16T23:02:06;100829.34;;;22.21;57.84
36304;BME280;22335;49.800;8.596;2022-10-16T23:08:52;100832.94;;;22.22;57.34
36304;BME280;22335;49.800;8.596;2022-10-16T23:15:42;100783.25;;;21.83;57.68
36304;BME280;22335;49.800;8.596;2022-10-16T23:22:28;100850.22;;;22.15;57.59
36304;BME280;22335;49.800;8.596;2022-10-16T23:29:13;100840.94;;;22.11;57.36
36304;BME280;22335;49.800;8.596;2022-10-16T23:36:03;100864.63;;;22.05;57.63
36304;BME280;22335;49.800;8.596;2022-10-16T23:42:50;100883.31;;;22.04;57.55
36304;BME280;22335;49.800;8.596;2022-10-16T23:49:36;100847.34;;;21.71;57.31
36304;BME280;22335;49.800;8.596;2022-10-16T23:56:23;100887.19;;;22.00;57.65
